D/T METAR WX W/DIR W/SPE G/SPE TEMP DEWP
19/03/19 03:00 EINN 190300Z 18005KT 9999 FEW014 SCT018 BKN022 07/06 Q1024 NOSIG S (180°) 5.8mph 7°C 6°C
19/03/19 02:30 EINN 190230Z 17005KT 9999 FEW014 BKN023 BKN070 06/05 Q1025 NOSIG S (170°) 5.8mph 6°C 5°C
19/03/19 02:00 EINN 190200Z 19005KT 9999 FEW012 SCT030 BKN070 06/05 Q1025 NOSIG S (190°) 5.8mph 6°C 5°C
19/03/19 01:30 EINN 190130Z 21006KT 9999 FEW008 SCT100 06/05 Q1025 NOSIG SSW (210°) 6.9mph 6°C 5°C
19/03/19 01:00 EINN 190100Z 20005KT 9999 FEW006 06/05 Q1025 NOSIG SSW (200°) 5.8mph 6°C 5°C
19/03/19 00:30 EINN 190030Z 21005KT 9999 FEW010 06/05 Q1025 NOSIG SSW (210°) 5.8mph 6°C 5°C
19/03/19 00:00 EINN 190000Z 24006KT 9999 FEW010 07/06 Q1025 NOSIG WSW (240°) 6.9mph 7°C 6°C
18/03/19 23:30 EINN 182330Z 24007KT 9999 FEW008 BKN017 07/06 Q1026 NOSIG WSW (240°) 8.1mph 7°C 6°C
18/03/19 23:00 EINN 182300Z 24008KT 9999 FEW010 SCT014 BKN030 07/06 Q1025 NOSIG WSW (240°) 9.2mph 7°C 6°C
18/03/19 22:30 EINN 182230Z 22005KT 9999 FEW012 SCT030 08/06 Q1025 NOSIG SW (220°) 5.8mph 8°C 6°C
18/03/19 22:00 EINN 182200Z 25007KT 9999 FEW018 BKN030 08/07 Q1025 NOSIG WSW (250°) 8.1mph 8°C 7°C
18/03/19 21:30 EINN 182130Z 25006KT 9999 FEW015 SCT030 08/07 Q1025 NOSIG WSW (250°) 6.9mph 8°C 7°C
18/03/19 21:00 EINN 182100Z 24004KT 9999 FEW015 SCT030 BKN130 08/07 Q1025 NOSIG WSW (240°) 4.6mph 8°C 7°C
18/03/19 20:30 EINN 182030Z 23005KT 9999 FEW016 SCT030 BKN130 09/07 Q1025 NOSIG SW (230°) 5.8mph 9°C 7°C
18/03/19 20:00 EINN 182000Z 25006KT 9999 FEW016 SCT021 BKN130 09/07 Q1025 NOSIG WSW (250°) 6.9mph 9°C 7°C
18/03/19 19:30 EINN 181930Z 25007KT 9999 FEW016 BKN030 09/07 Q1025 NOSIG WSW (250°) 8.1mph 9°C 7°C
18/03/19 19:00 EINN 181900Z 26007KT 9999 FEW015 BKN030 BKN140 09/07 Q1024 NOSIG W (260°) 8.1mph 9°C 7°C
18/03/19 18:30 EINN 181830Z 26010KT 9999 FEW016 SCT019 BKN032 09/07 Q1024 NOSIG W (260°) 11.5mph 9°C 7°C
18/03/19 18:00 EINN 181800Z 27010KT 9999 FEW009 SCT070 BKN140 09/07 Q1024 NOSIG W (270°) 11.5mph 9°C 7°C
18/03/19 17:30 EINN 181730Z 27014KT 9999 FEW009 SCT022 BKN080 09/07 Q1024 NOSIG W (270°) 16.1mph 9°C 7°C
18/03/19 17:00 EINN 181700Z 27012KT 9999 FEW015 SCT019 BKN040 10/07 Q1023 NOSIG W (270°) 13.8mph 10°C 7°C
18/03/19 16:30 EINN 181630Z 28014KT 9999 FEW014 SCT019 BKN030 10/07 Q1023 NOSIG W (280°) 16.1mph 10°C 7°C
18/03/19 16:00 EINN 181600Z 27013KT 9999 -RA FEW012 BKN015 BKN021 10/08 Q1023 NOSIG -RA W (270°) 15.0mph 10°C 8°C
18/03/19 15:30 EINN 181530Z 27014KT 9999 -RA FEW012 BKN016 BKN022 10/08 Q1023 NOSIG -RA W (270°) 16.1mph 10°C 8°C
18/03/19 15:00 EINN 181500Z 28014KT 9999 -RA FEW010 BKN016 BKN022 10/08 Q1023 NOSIG -RA W (280°) 16.1mph 10°C 8°C
18/03/19 14:30 EINN 181430Z 27015KT 8000 -RA FEW006 BKN012 10/08 Q1023 NOSIG -RA W (270°) 17.3mph 10°C 8°C
18/03/19 14:00 EINN 181400Z 27012KT 8000 -RA FEW006 BKN014 10/08 Q1022 NOSIG -RA W (270°) 13.8mph 10°C 8°C
18/03/19 13:30 EINN 181330Z 27011KT 8000 -RA FEW006 BKN014 09/08 Q1022 NOSIG -RA W (270°) 12.7mph 9°C 8°C
18/03/19 13:00 EINN 181300Z 27014KT 9999 -RA FEW007 BKN013 BKN019 09/08 Q1023 NOSIG -RA W (270°) 16.1mph 9°C 8°C
18/03/19 12:30 EINN 181230Z 27012KT 7000 -RA FEW007 BKN012 BKN030 09/08 Q1022 NOSIG -RA W (270°) 13.8mph 9°C 8°C
18/03/19 12:00 EINN 181200Z 28011KT 7000 -RA FEW005 SCT011 BKN023 09/08 Q1022 NOSIG -RA W (280°) 12.7mph 9°C 8°C
18/03/19 11:30 EINN 181130Z 27011KT 9999 -RA FEW004 BKN021 BKN032 09/08 Q1022 NOSIG -RA W (270°) 12.7mph 9°C 8°C
18/03/19 11:00 EINN 181100Z 28011KT 9000 -RA FEW007 BKN018 BKN045 09/07 Q1022 NOSIG -RA W (280°) 12.7mph 9°C 7°C
18/03/19 10:30 EINN 181030Z 28012KT 7000 -RA FEW006 BKN017 BKN050 09/07 Q1022 NOSIG -RA W (280°) 13.8mph 9°C 7°C
18/03/19 10:00 EINN 181000Z 27011KT 8000 -RA FEW006 BKN015 08/07 Q1021 NOSIG -RA W (270°) 12.7mph 8°C 7°C
18/03/19 09:30 EINN 180930Z 27011KT 8000 -RA FEW006 BKN012 08/07 Q1021 NOSIG -RA W (270°) 12.7mph 8°C 7°C
18/03/19 09:00 EINN 180900Z 26013KT 8000 -RA FEW006 BKN012 08/07 Q1021 NOSIG -RA W (260°) 15.0mph 8°C 7°C
18/03/19 08:30 EINN 180830Z 26013KT 8000 -RA FEW006 BKN012 BKN018 08/07 Q1020 NOSIG -RA W (260°) 15.0mph 8°C 7°C
18/03/19 08:00 EINN 180800Z 26013KT 9999 -RA FEW006 BKN012 BKN034 08/07 Q1020 NOSIG -RA W (260°) 15.0mph 8°C 7°C
18/03/19 07:30 EINN 180730Z 25011KT 9999 -RA BKN011 BKN024 07/06 Q1020 NOSIG -RA WSW (250°) 12.7mph 7°C 6°C
18/03/19 07:00 EINN 180700Z 25012KT 9999 -RA FEW011 SCT019 BKN042 07/06 Q1020 NOSIG -RA WSW (250°) 13.8mph 7°C 6°C
18/03/19 06:30 EINN 180630Z 24009KT 9999 -RA SCT013 BKN048 07/06 Q1020 NOSIG -RA WSW (240°) 10.4mph 7°C 6°C
18/03/19 06:00 EINN 180600Z 25011KT 9999 -RA SCT012 BKN017 07/06 Q1020 NOSIG -RA WSW (250°) 12.7mph 7°C 6°C
18/03/19 05:30 EINN 180530Z 25009KT 9999 -RA SCT012 BKN019 07/06 Q1020 NOSIG -RA WSW (250°) 10.4mph 7°C 6°C
18/03/19 05:00 EINN 180500Z 26011KT 9999 -RA SCT012 BKN022 07/06 Q1020 NOSIG -RA W (260°) 12.7mph 7°C 6°C
18/03/19 04:30 EINN 180430Z 25012KT 9999 -RA SCT021 BKN048 07/05 Q1020 NOSIG -RA WSW (250°) 13.8mph 7°C 5°C
18/03/19 04:00 EINN 180400Z 25012KT 9999 -RA SCT022 BKN047 06/05 Q1020 NOSIG -RA WSW (250°) 13.8mph 6°C 5°C
18/03/19 03:30 EINN 180330Z 25013KT 9999 -RA SCT020 BKN044 06/05 Q1020 NOSIG -RA WSW (250°) 15.0mph 6°C 5°C
18/03/19 03:00 EINN 180300Z 25012KT 9999 -RA FEW020 BKN041 06/05 Q1021 NOSIG -RA WSW (250°) 13.8mph 6°C 5°C
18/03/19 02:30 EINN 180230Z 25011KT 9999 -RA FEW020 BKN047 06/05 Q1021 NOSIG -RA WSW (250°) 12.7mph 6°C 5°C
18/03/19 02:00 EINN 180200Z 26009KT 9999 -RA FEW020 BKN050 06/04 Q1021 NOSIG -RA W (260°) 10.4mph 6°C 4°C
18/03/19 01:30 EINN 180130Z 24008KT 9999 -RA FEW028 BKN060 06/04 Q1021 NOSIG -RA WSW (240°) 9.2mph 6°C 4°C
18/03/19 01:00 EINN 180100Z 25012KT 9999 -RA FEW028 BKN047 06/04 Q1021 NOSIG -RA WSW (250°) 13.8mph 6°C 4°C
18/03/19 00:30 EINN 180030Z 27009KT 9999 FEW028 SCT060 06/04 Q1021 NOSIG W (270°) 10.4mph 6°C 4°C
18/03/19 00:00 EINN 180000Z 27008KT 9999 FEW028 SCT060 06/03 Q1021 NOSIG W (270°) 9.2mph 6°C 3°C
17/03/19 23:30 EINN 172330Z 24008KT 9999 FEW027 SCT046 06/04 Q1021 NOSIG WSW (240°) 9.2mph 6°C 4°C
17/03/19 23:00 EINN 172300Z 26005KT 9999 FEW027 SCT046 06/03 Q1021 NOSIG W (260°) 5.8mph 6°C 3°C
17/03/19 22:30 EINN 172230Z 26008KT 9999 FEW027 SCT046 BKN110 06/03 Q1020 NOSIG W (260°) 9.2mph 6°C 3°C
17/03/19 22:00 EINN 172200Z 27007KT 9999 FEW046 SCT110 06/03 Q1020 NOSIG W (270°) 8.1mph 6°C 3°C
17/03/19 21:30 EINN 172130Z 28010KT 9999 FEW036 06/03 Q1020 NOSIG W (280°) 11.5mph 6°C 3°C
17/03/19 21:00 EINN 172100Z 28010KT 9999 FEW036 06/04 Q1020 NOSIG W (280°) 11.5mph 6°C 4°C
17/03/19 20:30 EINN 172030Z 28008KT 9999 FEW022 06/04 Q1020 NOSIG W (280°) 9.2mph 6°C 4°C
17/03/19 20:00 EINN 172000Z 27009KT 9999 FEW024 07/03 Q1019 NOSIG W (270°) 10.4mph 7°C 3°C
17/03/19 19:30 EINN 171930Z 28008KT 9999 FEW021 07/02 Q1019 NOSIG W (280°) 9.2mph 7°C 2°C
17/03/19 19:00 EINN 171900Z 29013KT 9999 FEW021 SCT042 08/03 Q1018 NOSIG WNW (290°) 15.0mph 8°C 3°C
17/03/19 18:30 EINN 171830Z 29014KT 9999 FEW021 SCT040 08/04 Q1018 NOSIG WNW (290°) 16.1mph 8°C 4°C
17/03/19 18:00 EINN 171800Z 29018KT 9999 FEW021 SCT040 08/04 Q1017 NOSIG WNW (290°) 20.7mph 8°C 4°C
17/03/19 17:30 EINN 171730Z 29018KT 9999 FEW018CB 09/04 Q1017 NOSIG WNW (290°) 20.7mph 9°C 4°C
17/03/19 17:00 EINN 171700Z 29020KT 9999 FEW018CB 09/04 Q1017 NOSIG WNW (290°) 23.0mph 9°C 4°C
17/03/19 16:30 EINN 171630Z 29019KT 9999 FEW024 09/04 Q1016 NOSIG WNW (290°) 21.9mph 9°C 4°C
17/03/19 16:00 EINN 171600Z 29019KT 9999 FEW018CB 09/04 Q1015 NOSIG WNW (290°) 21.9mph 9°C 4°C
17/03/19 15:30 EINN 171530Z 30019KT 9999 FEW018CB SCT040 09/05 Q1015 NOSIG WNW (300°) 21.9mph 9°C 5°C
17/03/19 15:00 EINN 171500Z 31019G30KT 9999 FEW018CB SCT040 BKN200 09/05 Q1015 NOSIG NW (310°) 21.9mph 34.5mph 9°C 5°C
17/03/19 14:30 EINN 171430Z 30021KT 9999 FEW018CB BKN040 10/05 Q1014 NOSIG WNW (300°) 24.2mph 10°C 5°C
17/03/19 14:00 EINN 171400Z 30022G32KT 9999 FEW018CB SCT200 10/05 Q1013 NOSIG WNW (300°) 25.3mph 36.8mph 10°C 5°C
17/03/19 13:30 EINN 171330Z 29019KT 9999 FEW018CB 08/05 Q1013 NOSIG WNW (290°) 21.9mph 8°C 5°C
17/03/19 13:00 EINN 171300Z 29020KT 9999 FEW018CB 09/06 Q1012 NOSIG WNW (290°) 23.0mph 9°C 6°C
17/03/19 12:30 EINN 171230Z 29020G30KT 9999 FEW018CB BKN028 08/05 Q1012 NOSIG WNW (290°) 23.0mph 34.5mph 8°C 5°C
17/03/19 12:00 EINN 171200Z 30021G31KT 9999 -SHRA FEW014 SCT018CB BKN032 07/05 Q1011 NOSIG -SHRA WNW (300°) 24.2mph 35.7mph 7°C 5°C
17/03/19 11:30 EINN 171130Z 29022KT 9999 -SHRA SCT018CB BKN038 09/03 Q1011 NOSIG -SHRA WNW (290°) 25.3mph 9°C 3°C
17/03/19 11:00 EINN 171100Z 29020G32KT 9999 FEW018CB BKN045 09/03 Q1010 NOSIG WNW (290°) 23.0mph 36.8mph 9°C 3°C
17/03/19 10:30 EINN 171030Z 29020KT 9999 FEW018CB SCT040 08/03 Q1010 NOSIG WNW (290°) 23.0mph 8°C 3°C
17/03/19 10:00 EINN 171000Z 29016KT 9999 FEW018CB 08/03 Q1009 NOSIG WNW (290°) 18.4mph 8°C 3°C
17/03/19 09:30 EINN 170930Z 28014KT 9999 FEW018CB 08/03 Q1009 NOSIG W (280°) 16.1mph 8°C 3°C
17/03/19 09:00 EINN 170900Z 28014KT 9999 FEW018CB 07/03 Q1008 NOSIG W (280°) 16.1mph 7°C 3°C
17/03/19 08:30 EINN 170830Z 25008KT 9999 FEW018CB 05/02 Q1008 NOSIG WSW (250°) 9.2mph 5°C 2°C
17/03/19 08:00 EINN 170800Z 26008KT 9999 FEW018CB 04/01 Q1007 NOSIG W (260°) 9.2mph 4°C 1°C
17/03/19 07:30 EINN 170730Z 27010KT 9999 FEW018CB 03/01 Q1006 NOSIG W (270°) 11.5mph 3°C 1°C
17/03/19 07:00 EINN 170700Z 27011KT 9999 FEW010 FEW018CB 04/01 Q1006 NOSIG W (270°) 12.7mph 4°C 1°C
17/03/19 06:30 EINN 170630Z 25011KT 9999 FEW012 SCT018CB 04/02 Q1005 NOSIG WSW (250°) 12.7mph 4°C 2°C
17/03/19 06:00 EINN 170600Z 27009KT 9999 FEW018CB SCT060 BKN140 03/01 Q1005 NOSIG W (270°) 10.4mph 3°C 1°C
17/03/19 05:30 EINN 170530Z 25010KT 9999 FEW012 FEW018CB SCT060 03/01 Q1004 NOSIG WSW (250°) 11.5mph 3°C 1°C
17/03/19 05:00 EINN 170500Z 29009KT 9999 -SHRA FEW013 SCT018CB BKN028 04/01 Q1004 NOSIG -SHRA WNW (290°) 10.4mph 4°C 1°C
17/03/19 04:30 EINN 170430Z 27005KT 9999 FEW014 SCT018CB BKN060 04/02 Q1003 NOSIG W (270°) 5.8mph 4°C 2°C
17/03/19 04:00 EINN 170400Z 25009KT 9999 FEW018CB BKN045 BKN120 04/02 Q1003 NOSIG WSW (250°) 10.4mph 4°C 2°C
17/03/19 03:30 EINN 170330Z 23008KT 9999 FEW018CB SCT035 04/02 Q1003 NOSIG SW (230°) 9.2mph 4°C 2°C
17/03/19 03:00 EINN 170300Z 24011KT 9999 FEW018CB SCT038 BKN050 04/01 Q1002 NOSIG WSW (240°) 12.7mph 4°C 1°C
17/03/19 02:30 EINN 170230Z 26005KT 9999 FEW018CB SCT036 03/01 Q1002 NOSIG W (260°) 5.8mph 3°C 1°C
17/03/19 02:00 EINN 170200Z 27015KT 9999 FEW018CB BKN044 BKN120 04/01 Q1003 TEMPO 4000 -SHRASN W (270°) 17.3mph 4°C 1°C
17/03/19 01:30 EINN 170130Z 25012KT 9999 FEW018CB SCT032 BKN120 03/01 Q1002 TEMPO 4000 -SHRASN WSW (250°) 13.8mph 3°C 1°C
17/03/19 01:00 EINN 170100Z 24010KT 9999 FEW018CB SCT140 03/01 Q1002 TEMPO 4000 -SHRASN WSW (240°) 11.5mph 3°C 1°C
17/03/19 00:30 EINN 170030Z 26014KT 9999 -SHRA FEW018CB SCT040 BKN100 03/01 Q1002 TEMPO 4000 -SHRASN -SHRA W (260°) 16.1mph 3°C 1°C
17/03/19 00:00 EINN 170000Z 23004KT 9999 FEW015 FEW018CB BKN040 03/01 Q1002 TEMPO 4000 -SHRASN SW (230°) 4.6mph 3°C 1°C
16/03/19 23:30 EINN 162330Z 26008KT 9999 -SHRA FEW010 SCT018CB BKN032 03/01 Q1002 TEMPO 4000 -SHRASN -SHRA W (260°) 9.2mph 3°C 1°C
16/03/19 23:00 EINN 162300Z 29010KT 9999 FEW010 FEW018CB BKN039 03/01 Q1001 TEMPO 4000 -SHRASN WNW (290°) 11.5mph 3°C 1°C
16/03/19 22:30 EINN 162230Z 27009KT 9999 -SHRA FEW014 FEW018CB BKN060 03/01 Q1001 TEMPO 4000 -SHRASN -SHRA W (270°) 10.4mph 3°C 1°C
16/03/19 22:00 EINN 162200Z 25006KT 9999 FEW014 FEW018CB BKN050 02/01 Q1001 TEMPO 4000 -SHRASN WSW (250°) 6.9mph 2°C 1°C
16/03/19 21:30 EINN 162130Z 29008KT 9999 -SHRA FEW011 SCT018CB BKN030 02/01 Q1001 TEMPO 4000 -SHRASN -SHRA WNW (290°) 9.2mph 2°C 1°C
16/03/19 21:00 EINN 162100Z 30009KT 260V330 9999 FEW014 FEW018CB BKN030 03/01 Q1000 TEMPO 4000 -SHRASN WNW (300°) 10.4mph 3°C 1°C
16/03/19 20:30 EINN 162030Z 30009KT 9999 -SHRA FEW011 FEW018CB BKN030 03/01 Q1000 TEMPO -SHRAGS -SHRA WNW (300°) 10.4mph 3°C 1°C
16/03/19 20:00 EINN 162000Z 29010KT 9999 -SHRA FEW014 SCT018CB BKN042 04/02 Q0999 NOSIG -SHRA WNW (290°) 11.5mph 4°C 2°C
16/03/19 19:30 EINN 161930Z 30012KT 9999 FEW014 FEW018CB 04/02 Q0999 NOSIG WNW (300°) 13.8mph 4°C 2°C
16/03/19 19:00 EINN 161900Z 29007KT 9999 FEW018CB 04/03 Q0998 NOSIG WNW (290°) 8.1mph 4°C 3°C
16/03/19 18:30 EINN 161830Z 31011KT 9999 FEW018CB SCT040 04/03 Q0997 NOSIG NW (310°) 12.7mph 4°C 3°C
16/03/19 18:00 EINN 161800Z 30012KT 7000 -SHRAGS FEW012 SCT018CB BKN036 05/03 Q0997 NOSIG -SHRA -SHGS WNW (300°) 13.8mph 5°C 3°C
16/03/19 17:30 EINN 161730Z 29013KT 9999 VCSH SCT018CB SCT050 06/03 Q0996 NOSIG VCSH WNW (290°) 15.0mph 6°C 3°C
16/03/19 17:00 EINN 161700Z 29016G26KT 9999 FEW018CB 07/03 Q0996 NOSIG WNW (290°) 18.4mph 29.9mph 7°C 3°C
16/03/19 16:30 EINN 161630Z 29016KT 9999 FEW011 FEW018CB 06/04 Q0995 NOSIG WNW (290°) 18.4mph 6°C 4°C
16/03/19 16:00 EINN 161600Z 29016G28KT 9999 -SHRA FEW011 SCT018CB BKN070 06/04 Q0995 NOSIG -SHRA WNW (290°) 18.4mph 32.2mph 6°C 4°C
16/03/19 15:30 EINN 161530Z 29016KT 9999 FEW016 FEW018CB SCT024 BKN070 07/03 Q0995 NOSIG WNW (290°) 18.4mph 7°C 3°C
16/03/19 15:00 EINN 161500Z 30019G30KT 9999 FEW014 FEW018CB BKN032 07/04 Q0994 NOSIG WNW (300°) 21.9mph 34.5mph 7°C 4°C
16/03/19 14:30 EINN 161430Z 28022KT 9999 -SHRA FEW014 FEW018CB SCT080 06/05 Q0994 NOSIG -SHRA W (280°) 25.3mph 6°C 5°C
16/03/19 14:00 EINN 161400Z 28017KT 9999 FEW014 SCT048 BKN100 07/05 Q0993 NOSIG W (280°) 19.6mph 7°C 5°C
16/03/19 13:30 EINN 161330Z 28018KT 9999 FEW018 SCT050 BKN100 08/05 Q0993 NOSIG W (280°) 20.7mph 8°C 5°C
16/03/19 13:00 EINN 161300Z 28017KT 9999 SCT018 SCT046 BKN100 08/05 Q0993 NOSIG W (280°) 19.6mph 8°C 5°C
16/03/19 12:30 EINN 161230Z 28017KT 9999 -RA FEW012 SCT018 BKN044 08/05 Q0993 NOSIG -RA W (280°) 19.6mph 8°C 5°C
16/03/19 12:00 EINN 161200Z 28018KT 9999 -RA FEW009 SCT015 BKN040 08/06 Q0992 NOSIG -RA W (280°) 20.7mph 8°C 6°C
16/03/19 11:30 EINN 161130Z 27017G27KT 9000 -RA FEW009 BKN014 BKN035 09/07 Q0991 TEMPO 5000 -RA W (270°) 19.6mph 31.1mph 9°C 7°C
16/03/19 11:00 EINN 161100Z 26017KT 9000 -RA FEW010 BKN013 BKN038 09/08 Q0991 TEMPO 5000 -RA W (260°) 19.6mph 9°C 8°C
16/03/19 10:30 EINN 161030Z 25022KT 7000 -RA SCT010 BKN016 BKN035 10/08 Q0990 TEMPO 5000 -RA WSW (250°) 25.3mph 10°C 8°C
16/03/19 10:00 EINN 161000Z 24021KT 9000 -RA FEW012 BKN016 BKN040 10/09 Q0990 TEMPO 5000 -RA WSW (240°) 24.2mph 10°C 9°C
16/03/19 09:30 EINN 160930Z 24020KT 9000 -RA FEW010 BKN015 BKN019 11/09 Q0990 TEMPO 5000 -RA WSW (240°) 23.0mph 11°C 9°C
16/03/19 09:00 EINN 160900Z 23024G36KT 9000 -RA FEW011 BKN016 BKN030 11/10 Q0990 WS RWY24 NOSIG -RA SW (230°) 27.6mph 41.4mph 11°C 10°C
16/03/19 08:30 EINN 160830Z 22026G38KT 9000 -RA FEW014 BKN019 BKN036 11/10 Q0990 WS RWY24 NOSIG -RA SW (220°) 29.9mph 43.7mph 11°C 10°C
16/03/19 08:00 EINN 160800Z 22023KT 8000 -RA FEW012 BKN017 BKN030 11/10 Q0990 NOSIG -RA SW (220°) 26.5mph 11°C 10°C
16/03/19 07:30 EINN 160730Z 22022G32KT 9000 -RA FEW012 BKN017 BKN030 11/10 Q0991 NOSIG -RA SW (220°) 25.3mph 36.8mph 11°C 10°C
16/03/19 07:00 EINN 160700Z 22023G33KT 9000 -RA FEW010 BKN014 BKN035 11/10 Q0991 NOSIG -RA SW (220°) 26.5mph 38.0mph 11°C 10°C
16/03/19 06:30 EINN 160630Z 22023KT 9000 RA FEW010 BKN017 BKN032 11/10 Q0992 NOSIG RA SW (220°) 26.5mph 11°C 10°C
16/03/19 06:00 EINN 160600Z 22023KT 9000 RA FEW010 BKN016 OVC036 11/10 Q0992 NOSIG RA SW (220°) 26.5mph 11°C 10°C
16/03/19 05:30 EINN 160530Z 22022KT 9999 RA FEW010 BKN015 BKN029 11/10 Q0993 NOSIG RA SW (220°) 25.3mph 11°C 10°C
16/03/19 05:00 EINN 160500Z 22023KT 9999 -RA FEW012 SCT016 BKN024 11/09 Q0993 NOSIG -RA SW (220°) 26.5mph 11°C 9°C
16/03/19 04:30 EINN 160430Z 22022KT 9999 -RA FEW012 BKN018 BKN024 11/09 Q0994 NOSIG -RA SW (220°) 25.3mph 11°C 9°C
16/03/19 04:00 EINN 160400Z 22022KT 9999 -RA SCT015 BKN024 OVC033 11/09 Q0995 NOSIG -RA SW (220°) 25.3mph 11°C 9°C
16/03/19 03:30 EINN 160330Z 22021KT 9999 -RA FEW010 BKN016 OVC028 11/09 Q0995 NOSIG -RA SW (220°) 24.2mph 11°C 9°C